sensor_id;sensor_type;location;lat;lon;timestamp;P1;durP1;ratioP1;P2;durP2;ratioP2
577;SDS011;275;48.492;9.214;2023-04-06T00:00:24;16.25;;;14.85;;
577;SDS011;275;48.492;9.214;2023-04-06T00:02:51;15.25;;;13.80;;
577;SDS011;275;48.492;9.214;2023-04-06T00:05:21;15.68;;;14.43;;
577;SDS011;275;48.492;9.214;2023-04-06T00:07:48;15.50;;;14.20;;
577;SDS011;275;48.492;9.214;2023-04-06T00:10:15;14.88;;;13.65;;
577;SDS011;275;48.492;9.214;2023-04-06T00:12:42;15.55;;;14.35;;
577;SDS011;275;48.492;9.214;2023-04-06T00:15:10;16.23;;;14.93;;
577;SDS011;275;48.492;9.214;2023-04-06T00:17:37;15.75;;;14.45;;
577;SDS011;275;48.492;9.214;2023-04-06T00:20:04;14.77;;;13.60;;
577;SDS011;275;48.492;9.214;2023-04-06T00:22:34;15.27;;;13.98;;
577;SDS011;275;48.492;9.214;2023-04-06T00:25:01;21.08;;;14.35;;
577;SDS011;275;48.492;9.214;2023-04-06T00:27:28;17.00;;;15.55;;
577;SDS011;275;48.492;9.214;2023-04-06T00:29:55;15.30;;;13.90;;
577;SDS011;275;48.492;9.214;2023-04-06T00:32:22;14.23;;;13.02;;
577;SDS011;275;48.492;9.214;2023-04-06T00:34:49;15.05;;;13.73;;
577;SDS011;275;48.492;9.214;2023-04-06T00:37:16;14.95;;;13.70;;
577;SDS011;275;48.492;9.214;2023-04-06T00:39:45;14.55;;;13.15;;
577;SDS011;275;48.492;9.214;2023-04-06T00:42:12;15.85;;;14.45;;
577;SDS011;275;48.492;9.214;2023-04-06T00:44:40;14.73;;;13.43;;
577;SDS011;275;48.492;9.214;2023-04-06T00:47:07;14.68;;;13.48;;
577;SDS011;275;48.492;9.214;2023-04-06T00:49:34;14.50;;;13.32;;
577;SDS011;275;48.492;9.214;2023-04-06T00:52:01;15.45;;;14.07;;
577;SDS011;275;48.492;9.214;2023-04-06T00:54:28;13.88;;;12.48;;
577;SDS011;275;48.492;9.214;2023-04-06T00:56:57;15.10;;;13.63;;
577;SDS011;275;48.492;9.214;2023-04-06T00:59:24;14.73;;;13.48;;
577;SDS011;275;48.492;9.214;2023-04-06T01:01:51;14.77;;;13.48;;
577;SDS011;275;48.492;9.214;2023-04-06T01:04:18;13.85;;;12.60;;
577;SDS011;275;48.492;9.214;2023-04-06T01:06:47;14.30;;;13.00;;
577;SDS011;275;48.492;9.214;2023-04-06T01:09:14;14.98;;;13.68;;
577;SDS011;275;48.492;9.214;2023-04-06T01:11:41;14.55;;;13.25;;
577;SDS011;275;48.492;9.214;2023-04-06T01:14:10;16.70;;;15.00;;
577;SDS011;275;48.492;9.214;2023-04-06T01:16:37;18.02;;;16.55;;
577;SDS011;275;48.492;9.214;2023-04-06T01:19:06;16.40;;;15.10;;
577;SDS011;275;48.492;9.214;2023-04-06T01:21:34;18.88;;;17.38;;
577;SDS011;275;48.492;9.214;2023-04-06T01:24:03;18.50;;;17.00;;
577;SDS011;275;48.492;9.214;2023-04-06T01:26:31;18.42;;;16.92;;
577;SDS011;275;48.492;9.214;2023-04-06T01:28:58;19.05;;;17.25;;
577;SDS011;275;48.492;9.214;2023-04-06T01:31:25;17.52;;;16.13;;
577;SDS011;275;48.492;9.214;2023-04-06T01:33:52;18.55;;;16.98;;
577;SDS011;275;48.492;9.214;2023-04-06T01:36:19;16.20;;;14.75;;
577;SDS011;275;48.492;9.214;2023-04-06T01:38:47;16.75;;;15.32;;
577;SDS011;275;48.492;9.214;2023-04-06T01:41:15;18.13;;;16.52;;
577;SDS011;275;48.492;9.214;2023-04-06T01:43:44;17.15;;;15.68;;
577;SDS011;275;48.492;9.214;2023-04-06T01:46:11;17.35;;;15.93;;
577;SDS011;275;48.492;9.214;2023-04-06T01:48:38;18.48;;;16.85;;
577;SDS011;275;48.492;9.214;2023-04-06T01:51:05;17.27;;;15.88;;
577;SDS011;275;48.492;9.214;2023-04-06T01:53:32;17.40;;;15.80;;
577;SDS011;275;48.492;9.214;2023-04-06T01:55:59;17.27;;;15.77;;
577;SDS011;275;48.492;9.214;2023-04-06T01:58:27;16.77;;;15.23;;
577;SDS011;275;48.492;9.214;2023-04-06T02:00:54;18.05;;;16.55;;
577;SDS011;275;48.492;9.214;2023-04-06T02:03:21;17.42;;;16.00;;
577;SDS011;275;48.492;9.214;2023-04-06T02:05:48;18.80;;;17.00;;
577;SDS011;275;48.492;9.214;2023-04-06T02:08:15;17.98;;;16.55;;
577;SDS011;275;48.492;9.214;2023-04-06T02:10:42;18.25;;;16.85;;
577;SDS011;275;48.492;9.214;2023-04-06T02:13:08;19.13;;;17.38;;
577;SDS011;275;48.492;9.214;2023-04-06T02:15:37;18.23;;;16.42;;
577;SDS011;275;48.492;9.214;2023-04-06T02:18:04;18.58;;;17.05;;
577;SDS011;275;48.492;9.214;2023-04-06T02:20:31;18.10;;;16.33;;
577;SDS011;275;48.492;9.214;2023-04-06T02:22:58;18.15;;;16.70;;
577;SDS011;275;48.492;9.214;2023-04-06T02:25:26;18.05;;;16.50;;
577;SDS011;275;48.492;9.214;2023-04-06T02:27:53;17.67;;;16.13;;
577;SDS011;275;48.492;9.214;2023-04-06T02:30:20;19.45;;;17.70;;
577;SDS011;275;48.492;9.214;2023-04-06T02:32:48;18.65;;;16.88;;
577;SDS011;275;48.492;9.214;2023-04-06T02:35:15;17.58;;;15.98;;
577;SDS011;275;48.492;9.214;2023-04-06T02:37:42;18.05;;;16.35;;
577;SDS011;275;48.492;9.214;2023-04-06T02:40:09;17.25;;;15.85;;
577;SDS011;275;48.492;9.214;2023-04-06T02:42:36;18.40;;;16.73;;
577;SDS011;275;48.492;9.214;2023-04-06T02:45:04;17.33;;;15.85;;
577;SDS011;275;48.492;9.214;2023-04-06T02:47:32;20.02;;;18.35;;
577;SDS011;275;48.492;9.214;2023-04-06T02:50:00;17.30;;;15.98;;
577;SDS011;275;48.492;9.214;2023-04-06T02:52:27;17.50;;;16.00;;
577;SDS011;275;48.492;9.214;2023-04-06T02:54:54;18.88;;;17.35;;
577;SDS011;275;48.492;9.214;2023-04-06T02:57:21;18.30;;;16.90;;
577;SDS011;275;48.492;9.214;2023-04-06T02:59:48;18.27;;;16.52;;
577;SDS011;275;48.492;9.214;2023-04-06T03:02:15;18.70;;;16.95;;
577;SDS011;275;48.492;9.214;2023-04-06T03:04:42;19.30;;;17.70;;
577;SDS011;275;48.492;9.214;2023-04-06T03:07:10;18.35;;;16.77;;
577;SDS011;275;48.492;9.214;2023-04-06T03:09:37;17.98;;;16.40;;
577;SDS011;275;48.492;9.214;2023-04-06T03:12:04;19.58;;;18.02;;
577;SDS011;275;48.492;9.214;2023-04-06T03:14:31;18.77;;;17.17;;
577;SDS011;275;48.492;9.214;2023-04-06T03:16:58;19.80;;;17.77;;
577;SDS011;275;48.492;9.214;2023-04-06T03:19:25;20.17;;;18.48;;
577;SDS011;275;48.492;9.214;2023-04-06T03:21:52;20.30;;;18.70;;
577;SDS011;275;48.492;9.214;2023-04-06T03:24:20;19.45;;;17.85;;
577;SDS011;275;48.492;9.214;2023-04-06T03:26:47;20.42;;;18.67;;
577;SDS011;275;48.492;9.214;2023-04-06T03:29:14;18.58;;;17.08;;
577;SDS011;275;48.492;9.214;2023-04-06T03:31:41;19.83;;;17.95;;
577;SDS011;275;48.492;9.214;2023-04-06T03:34:08;18.30;;;16.77;;
577;SDS011;275;48.492;9.214;2023-04-06T03:36:35;18.80;;;17.30;;
577;SDS011;275;48.492;9.214;2023-04-06T03:39:02;19.42;;;17.77;;
577;SDS011;275;48.492;9.214;2023-04-06T03:41:30;18.33;;;16.92;;
577;SDS011;275;48.492;9.214;2023-04-06T03:43:57;16.95;;;15.55;;
577;SDS011;275;48.492;9.214;2023-04-06T03:46:24;16.60;;;15.20;;
577;SDS011;275;48.492;9.214;2023-04-06T03:48:51;19.63;;;18.00;;
577;SDS011;275;48.492;9.214;2023-04-06T03:51:18;19.50;;;17.90;;
577;SDS011;275;48.492;9.214;2023-04-06T03:53:45;18.08;;;16.58;;
577;SDS011;275;48.492;9.214;2023-04-06T03:56:12;19.80;;;18.08;;
577;SDS011;275;48.492;9.214;2023-04-06T03:58:41;18.60;;;17.10;;
577;SDS011;275;48.492;9.214;2023-04-06T04:01:09;18.35;;;16.73;;
577;SDS011;275;48.492;9.214;2023-04-06T04:03:36;19.40;;;17.52;;
577;SDS011;275;48.492;9.214;2023-04-06T04:06:03;19.25;;;17.63;;
577;SDS011;275;48.492;9.214;2023-04-06T04:08:30;18.60;;;17.10;;
577;SDS011;275;48.492;9.214;2023-04-06T04:10:57;18.70;;;17.13;;
577;SDS011;275;48.492;9.214;2023-04-06T04:13:24;18.17;;;16.67;;
577;SDS011;275;48.492;9.214;2023-04-06T04:15:52;19.00;;;17.50;;
577;SDS011;275;48.492;9.214;2023-04-06T04:18:19;17.90;;;16.40;;
577;SDS011;275;48.492;9.214;2023-04-06T04:20:46;18.45;;;16.85;;
577;SDS011;275;48.492;9.214;2023-04-06T04:23:13;19.08;;;17.30;;
577;SDS011;275;48.492;9.214;2023-04-06T04:25:40;19.70;;;18.00;;
577;SDS011;275;48.492;9.214;2023-04-06T04:28:07;19.50;;;17.65;;
577;SDS011;275;48.492;9.214;2023-04-06T04:30:34;19.63;;;17.92;;
577;SDS011;275;48.492;9.214;2023-04-06T04:33:02;20.60;;;18.80;;
577;SDS011;275;48.492;9.214;2023-04-06T04:35:29;19.30;;;17.60;;
577;SDS011;275;48.492;9.214;2023-04-06T04:37:56;17.90;;;16.30;;
577;SDS011;275;48.492;9.214;2023-04-06T04:40:23;19.27;;;17.67;;
577;SDS011;275;48.492;9.214;2023-04-06T04:42:50;18.13;;;16.45;;
577;SDS011;275;48.492;9.214;2023-04-06T04:45:17;19.10;;;17.52;;
577;SDS011;275;48.492;9.214;2023-04-06T04:47:44;19.90;;;18.10;;
577;SDS011;275;48.492;9.214;2023-04-06T04:50:12;18.50;;;17.10;;
577;SDS011;275;48.492;9.214;2023-04-06T04:52:39;18.35;;;16.85;;
577;SDS011;275;48.492;9.214;2023-04-06T04:55:06;20.15;;;18.33;;
577;SDS011;275;48.492;9.214;2023-04-06T04:57:33;19.92;;;18.10;;
577;SDS011;275;48.492;9.214;2023-04-06T05:00:00;29.85;;;19.65;;
577;SDS011;275;48.492;9.214;2023-04-06T05:02:27;20.15;;;18.20;;
577;SDS011;275;48.492;9.214;2023-04-06T05:04:54;22.67;;;20.52;;
577;SDS011;275;48.492;9.214;2023-04-06T05:07:22;21.50;;;19.30;;
577;SDS011;275;48.492;9.214;2023-04-06T05:09:49;21.40;;;19.35;;
577;SDS011;275;48.492;9.214;2023-04-06T05:12:17;20.42;;;18.73;;
577;SDS011;275;48.492;9.214;2023-04-06T05:14:44;20.70;;;18.70;;
577;SDS011;275;48.492;9.214;2023-04-06T05:17:11;22.30;;;20.20;;
577;SDS011;275;48.492;9.214;2023-04-06T05:19:38;21.88;;;19.83;;
577;SDS011;275;48.492;9.214;2023-04-06T05:22:05;22.10;;;20.30;;
577;SDS011;275;48.492;9.214;2023-04-06T05:24:33;22.52;;;20.30;;
577;SDS011;275;48.492;9.214;2023-04-06T05:27:01;22.50;;;20.42;;
577;SDS011;275;48.492;9.214;2023-04-06T05:29:28;23.27;;;21.17;;
577;SDS011;275;48.492;9.214;2023-04-06T05:31:55;22.48;;;20.38;;
577;SDS011;275;48.492;9.214;2023-04-06T05:34:22;23.40;;;21.30;;
577;SDS011;275;48.492;9.214;2023-04-06T05:36:49;21.73;;;19.73;;
577;SDS011;275;48.492;9.214;2023-04-06T05:39:16;23.73;;;20.67;;
577;SDS011;275;48.492;9.214;2023-04-06T05:41:44;33.03;;;30.15;;
577;SDS011;275;48.492;9.214;2023-04-06T05:44:11;25.40;;;23.05;;
577;SDS011;275;48.492;9.214;2023-04-06T05:46:38;30.00;;;26.95;;
577;SDS011;275;48.492;9.214;2023-04-06T05:49:05;29.13;;;26.38;;
577;SDS011;275;48.492;9.214;2023-04-06T05:51:32;24.48;;;22.10;;
577;SDS011;275;48.492;9.214;2023-04-06T05:53:59;26.65;;;24.27;;
577;SDS011;275;48.492;9.214;2023-04-06T05:56:26;24.50;;;22.10;;
577;SDS011;275;48.492;9.214;2023-04-06T05:58:54;23.23;;;20.90;;
577;SDS011;275;48.492;9.214;2023-04-06T06:01:21;23.70;;;21.30;;
577;SDS011;275;48.492;9.214;2023-04-06T06:03:47;23.55;;;21.20;;
577;SDS011;275;48.492;9.214;2023-04-06T06:06:14;22.50;;;20.10;;
577;SDS011;275;48.492;9.214;2023-04-06T06:08:41;22.52;;;20.58;;
577;SDS011;275;48.492;9.214;2023-04-06T06:11:09;20.63;;;18.58;;
577;SDS011;275;48.492;9.214;2023-04-06T06:13:36;19.02;;;17.40;;
577;SDS011;275;48.492;9.214;2023-04-06T06:16:04;21.00;;;17.30;;
577;SDS011;275;48.492;9.214;2023-04-06T06:18:31;18.88;;;17.17;;
577;SDS011;275;48.492;9.214;2023-04-06T06:20:58;19.88;;;18.08;;
577;SDS011;275;48.492;9.214;2023-04-06T06:23:25;20.02;;;18.23;;
577;SDS011;275;48.492;9.214;2023-04-06T06:25:52;19.13;;;17.52;;
577;SDS011;275;48.492;9.214;2023-04-06T06:28:21;19.40;;;17.80;;
577;SDS011;275;48.492;9.214;2023-04-06T06:30:48;20.05;;;18.10;;
577;SDS011;275;48.492;9.214;2023-04-06T06:33:16;19.00;;;17.33;;
577;SDS011;275;48.492;9.214;2023-04-06T06:35:43;18.30;;;16.65;;
577;SDS011;275;48.492;9.214;2023-04-06T06:38:10;19.85;;;18.05;;
577;SDS011;275;48.492;9.214;2023-04-06T06:40:37;19.40;;;17.50;;
577;SDS011;275;48.492;9.214;2023-04-06T06:43:04;19.10;;;17.40;;
577;SDS011;275;48.492;9.214;2023-04-06T06:45:31;18.13;;;16.52;;
577;SDS011;275;48.492;9.214;2023-04-06T06:47:58;19.15;;;17.45;;
577;SDS011;275;48.492;9.214;2023-04-06T06:50:26;16.30;;;14.85;;
577;SDS011;275;48.492;9.214;2023-04-06T06:52:53;17.05;;;15.55;;
577;SDS011;275;48.492;9.214;2023-04-06T06:55:20;17.35;;;15.82;;
577;SDS011;275;48.492;9.214;2023-04-06T06:57:47;17.77;;;16.08;;
577;SDS011;275;48.492;9.214;2023-04-06T07:00:14;17.92;;;16.25;;
577;SDS011;275;48.492;9.214;2023-04-06T07:02:41;18.40;;;16.77;;
577;SDS011;275;48.492;9.214;2023-04-06T07:05:08;18.45;;;16.75;;
577;SDS011;275;48.492;9.214;2023-04-06T07:07:37;18.73;;;16.95;;
577;SDS011;275;48.492;9.214;2023-04-06T07:10:04;20.23;;;18.23;;
577;SDS011;275;48.492;9.214;2023-04-06T07:12:31;27.02;;;19.40;;
577;SDS011;275;48.492;9.214;2023-04-06T07:14:58;23.70;;;17.75;;
577;SDS011;275;48.492;9.214;2023-04-06T07:17:25;23.30;;;18.05;;
577;SDS011;275;48.492;9.214;2023-04-06T07:19:52;17.95;;;15.52;;
577;SDS011;275;48.492;9.214;2023-04-06T07:22:19;20.15;;;17.40;;
577;SDS011;275;48.492;9.214;2023-04-06T07:24:47;19.27;;;16.83;;
577;SDS011;275;48.492;9.214;2023-04-06T07:27:14;18.88;;;16.90;;
577;SDS011;275;48.492;9.214;2023-04-06T07:29:42;17.50;;;15.90;;
577;SDS011;275;48.492;9.214;2023-04-06T07:32:09;17.55;;;15.90;;
577;SDS011;275;48.492;9.214;2023-04-06T07:34:36;19.80;;;17.70;;
577;SDS011;275;48.492;9.214;2023-04-06T07:37:02;18.98;;;17.27;;
577;SDS011;275;48.492;9.214;2023-04-06T07:39:29;18.38;;;16.42;;
577;SDS011;275;48.492;9.214;2023-04-06T07:41:58;16.15;;;14.55;;
577;SDS011;275;48.492;9.214;2023-04-06T07:44:25;15.68;;;14.07;;
577;SDS011;275;48.492;9.214;2023-04-06T07:46:52;16.80;;;15.18;;
577;SDS011;275;48.492;9.214;2023-04-06T07:49:18;15.80;;;14.20;;
577;SDS011;275;48.492;9.214;2023-04-06T07:51:46;14.25;;;12.88;;
577;SDS011;275;48.492;9.214;2023-04-06T07:54:12;13.60;;;12.27;;
577;SDS011;275;48.492;9.214;2023-04-06T07:56:39;15.23;;;13.80;;
577;SDS011;275;48.492;9.214;2023-04-06T07:59:08;15.63;;;13.93;;
577;SDS011;275;48.492;9.214;2023-04-06T08:01:36;17.93;;;14.03;;
577;SDS011;275;48.492;9.214;2023-04-06T08:04:03;15.63;;;13.50;;
577;SDS011;275;48.492;9.214;2023-04-06T08:06:30;16.57;;;13.80;;
577;SDS011;275;48.492;9.214;2023-04-06T08:08:57;16.70;;;14.77;;
577;SDS011;275;48.492;9.214;2023-04-06T08:11:24;19.80;;;15.13;;
577;SDS011;275;48.492;9.214;2023-04-06T08:13:51;18.47;;;13.90;;
577;SDS011;275;48.492;9.214;2023-04-06T08:16:20;16.50;;;14.80;;
577;SDS011;275;48.492;9.214;2023-04-06T08:18:46;19.97;;;13.90;;
577;SDS011;275;48.492;9.214;2023-04-06T08:21:13;16.67;;;14.90;;
577;SDS011;275;48.492;9.214;2023-04-06T08:23:40;15.83;;;13.33;;
577;SDS011;275;48.492;9.214;2023-04-06T08:26:07;15.93;;;14.30;;
577;SDS011;275;48.492;9.214;2023-04-06T08:28:34;14.80;;;13.20;;
577;SDS011;275;48.492;9.214;2023-04-06T08:31:03;15.50;;;13.93;;
577;SDS011;275;48.492;9.214;2023-04-06T08:33:32;15.10;;;13.60;;
577;SDS011;275;48.492;9.214;2023-04-06T08:36:06;16.83;;;15.13;;
577;SDS011;275;48.492;9.214;2023-04-06T08:38:35;14.50;;;13.03;;
577;SDS011;275;48.492;9.214;2023-04-06T08:41:06;15.47;;;13.97;;
577;SDS011;275;48.492;9.214;2023-04-06T08:43:35;14.87;;;13.47;;
577;SDS011;275;48.492;9.214;2023-04-06T08:46:08;14.50;;;13.10;;
577;SDS011;275;48.492;9.214;2023-04-06T08:48:37;13.63;;;12.43;;
577;SDS011;275;48.492;9.214;2023-04-06T08:51:05;13.30;;;12.03;;
577;SDS011;275;48.492;9.214;2023-04-06T08:53:32;14.60;;;13.20;;
577;SDS011;275;48.492;9.214;2023-04-06T08:55:59;14.17;;;12.90;;
577;SDS011;275;48.492;9.214;2023-04-06T08:58:28;13.80;;;12.57;;
577;SDS011;275;48.492;9.214;2023-04-06T09:00:58;12.87;;;11.60;;
577;SDS011;275;48.492;9.214;2023-04-06T09:03:26;12.93;;;11.50;;
577;SDS011;275;48.492;9.214;2023-04-06T09:05:57;13.73;;;12.37;;
577;SDS011;275;48.492;9.214;2023-04-06T09:08:25;12.67;;;11.53;;
577;SDS011;275;48.492;9.214;2023-04-06T09:10:52;13.00;;;11.80;;
577;SDS011;275;48.492;9.214;2023-04-06T09:13:19;12.50;;;11.30;;
577;SDS011;275;48.492;9.214;2023-04-06T09:15:46;12.93;;;11.73;;
577;SDS011;275;48.492;9.214;2023-04-06T09:18:13;12.10;;;11.00;;
577;SDS011;275;48.492;9.214;2023-04-06T09:20:57;12.93;;;11.73;;
577;SDS011;275;48.492;9.214;2023-04-06T09:23:25;13.20;;;12.10;;
577;SDS011;275;48.492;9.214;2023-04-06T09:26:02;13.20;;;12.10;;
577;SDS011;275;48.492;9.214;2023-04-06T09:28:45;13.27;;;12.00;;
577;SDS011;275;48.492;9.214;2023-04-06T09:31:13;13.30;;;12.10;;
577;SDS011;275;48.492;9.214;2023-04-06T09:33:41;14.30;;;13.00;;
577;SDS011;275;48.492;9.214;2023-04-06T09:36:10;13.70;;;12.50;;
577;SDS011;275;48.492;9.214;2023-04-06T09:38:37;12.27;;;11.23;;
577;SDS011;275;48.492;9.214;2023-04-06T09:41:05;13.27;;;11.83;;
577;SDS011;275;48.492;9.214;2023-04-06T09:43:31;13.63;;;12.37;;
577;SDS011;275;48.492;9.214;2023-04-06T09:45:59;12.33;;;11.13;;
577;SDS011;275;48.492;9.214;2023-04-06T09:48:28;11.73;;;10.70;;
577;SDS011;275;48.492;9.214;2023-04-06T09:50:59;11.20;;;10.27;;
577;SDS011;275;48.492;9.214;2023-04-06T09:53:30;11.20;;;10.10;;
577;SDS011;275;48.492;9.214;2023-04-06T09:56:02;11.47;;;10.43;;
577;SDS011;275;48.492;9.214;2023-04-06T09:58:32;11.20;;;10.13;;
577;SDS011;275;48.492;9.214;2023-04-06T10:01:03;11.10;;;10.00;;
577;SDS011;275;48.492;9.214;2023-04-06T10:03:36;11.40;;;10.40;;
577;SDS011;275;48.492;9.214;2023-04-06T10:06:11;11.40;;;10.33;;
577;SDS011;275;48.492;9.214;2023-04-06T10:08:41;11.83;;;10.73;;
577;SDS011;275;48.492;9.214;2023-04-06T10:11:09;11.63;;;10.60;;
577;SDS011;275;48.492;9.214;2023-04-06T10:13:36;11.23;;;10.23;;
577;SDS011;275;48.492;9.214;2023-04-06T10:16:03;10.53;;;9.63;;
577;SDS011;275;48.492;9.214;2023-04-06T10:18:31;10.20;;;9.30;;
577;SDS011;275;48.492;9.214;2023-04-06T10:21:00;11.33;;;10.30;;
577;SDS011;275;48.492;9.214;2023-04-06T10:23:32;12.43;;;11.40;;
577;SDS011;275;48.492;9.214;2023-04-06T10:26:03;11.70;;;10.60;;
577;SDS011;275;48.492;9.214;2023-04-06T10:28:30;10.97;;;10.07;;
577;SDS011;275;48.492;9.214;2023-04-06T10:30:59;11.83;;;10.63;;
577;SDS011;275;48.492;9.214;2023-04-06T10:33:28;12.30;;;11.10;;
577;SDS011;275;48.492;9.214;2023-04-06T10:35:55;10.60;;;9.57;;
577;SDS011;275;48.492;9.214;2023-04-06T10:38:32;10.17;;;9.17;;
577;SDS011;275;48.492;9.214;2023-04-06T10:41:05;10.13;;;9.13;;
577;SDS011;275;48.492;9.214;2023-04-06T10:43:33;14.57;;;10.07;;
577;SDS011;275;48.492;9.214;2023-04-06T10:46:01;10.30;;;9.30;;
577;SDS011;275;48.492;9.214;2023-04-06T10:48:36;10.90;;;9.83;;
577;SDS011;275;48.492;9.214;2023-04-06T10:51:07;10.50;;;9.57;;
577;SDS011;275;48.492;9.214;2023-04-06T10:53:35;8.80;;;8.00;;
577;SDS011;275;48.492;9.214;2023-04-06T10:56:02;11.23;;;10.10;;
577;SDS011;275;48.492;9.214;2023-04-06T10:58:36;9.30;;;8.43;;
577;SDS011;275;48.492;9.214;2023-04-06T11:01:02;9.30;;;8.40;;
577;SDS011;275;48.492;9.214;2023-04-06T11:03:30;10.20;;;9.30;;
577;SDS011;275;48.492;9.214;2023-04-06T11:05:57;8.67;;;7.87;;
577;SDS011;275;48.492;9.214;2023-04-06T11:08:25;9.43;;;8.27;;
577;SDS011;275;48.492;9.214;2023-04-06T11:11:04;8.53;;;7.73;;
577;SDS011;275;48.492;9.214;2023-04-06T11:13:40;10.07;;;9.13;;
577;SDS011;275;48.492;9.214;2023-04-06T11:16:12;8.83;;;8.03;;
577;SDS011;275;48.492;9.214;2023-04-06T11:18:46;8.30;;;7.50;;
577;SDS011;275;48.492;9.214;2023-04-06T11:21:17;9.17;;;8.27;;
577;SDS011;275;48.492;9.214;2023-04-06T11:23:45;9.07;;;8.17;;
577;SDS011;275;48.492;9.214;2023-04-06T11:26:13;10.27;;;8.50;;
577;SDS011;275;48.492;9.214;2023-04-06T11:28:41;8.90;;;8.00;;
577;SDS011;275;48.492;9.214;2023-04-06T11:31:09;11.10;;;9.10;;
577;SDS011;275;48.492;9.214;2023-04-06T11:33:36;10.17;;;8.40;;
577;SDS011;275;48.492;9.214;2023-04-06T11:36:05;8.20;;;7.40;;
577;SDS011;275;48.492;9.214;2023-04-06T11:38:33;8.27;;;7.17;;
577;SDS011;275;48.492;9.214;2023-04-06T11:41:00;8.70;;;7.90;;
577;SDS011;275;48.492;9.214;2023-04-06T11:43:30;9.67;;;7.70;;
577;SDS011;275;48.492;9.214;2023-04-06T11:46:00;9.60;;;8.30;;
577;SDS011;275;48.492;9.214;2023-04-06T11:48:28;9.80;;;8.37;;
577;SDS011;275;48.492;9.214;2023-04-06T11:50:56;7.57;;;6.87;;
577;SDS011;275;48.492;9.214;2023-04-06T11:53:25;8.80;;;7.90;;
577;SDS011;275;48.492;9.214;2023-04-06T11:55:53;9.10;;;7.13;;
577;SDS011;275;48.492;9.214;2023-04-06T11:58:19;7.67;;;6.97;;
577;SDS011;275;48.492;9.214;2023-04-06T12:00:48;8.47;;;7.67;;
577;SDS011;275;48.492;9.214;2023-04-06T12:03:15;8.20;;;7.40;;
577;SDS011;275;48.492;9.214;2023-04-06T12:05:42;9.03;;;8.10;;
577;SDS011;275;48.492;9.214;2023-04-06T12:08:13;9.03;;;8.10;;
577;SDS011;275;48.492;9.214;2023-04-06T12:10:40;8.10;;;7.30;;
577;SDS011;275;48.492;9.214;2023-04-06T12:13:07;7.73;;;6.93;;
577;SDS011;275;48.492;9.214;2023-04-06T12:15:34;8.67;;;7.77;;
577;SDS011;275;48.492;9.214;2023-04-06T12:18:02;8.87;;;8.07;;
577;SDS011;275;48.492;9.214;2023-04-06T12:20:29;8.90;;;8.00;;
577;SDS011;275;48.492;9.214;2023-04-06T12:22:56;8.33;;;7.50;;
577;SDS011;275;48.492;9.214;2023-04-06T12:25:23;8.00;;;7.20;;
577;SDS011;275;48.492;9.214;2023-04-06T12:27:49;12.23;;;8.03;;
577;SDS011;275;48.492;9.214;2023-04-06T12:30:16;9.30;;;7.17;;
577;SDS011;275;48.492;9.214;2023-04-06T12:32:43;8.87;;;7.90;;
577;SDS011;275;48.492;9.214;2023-04-06T12:35:12;8.10;;;7.30;;
577;SDS011;275;48.492;9.214;2023-04-06T12:37:40;7.70;;;6.50;;
577;SDS011;275;48.492;9.214;2023-04-06T12:40:08;6.20;;;5.60;;
577;SDS011;275;48.492;9.214;2023-04-06T12:42:38;7.43;;;6.73;;
577;SDS011;275;48.492;9.214;2023-04-06T12:45:05;7.27;;;6.53;;
577;SDS011;275;48.492;9.214;2023-04-06T12:47:33;7.50;;;6.70;;
577;SDS011;275;48.492;9.214;2023-04-06T12:50:01;7.90;;;6.93;;
577;SDS011;275;48.492;9.214;2023-04-06T12:52:29;6.90;;;6.20;;
577;SDS011;275;48.492;9.214;2023-04-06T12:54:57;8.67;;;6.80;;
577;SDS011;275;48.492;9.214;2023-04-06T12:57:25;8.27;;;7.40;;
577;SDS011;275;48.492;9.214;2023-04-06T12:59:52;9.47;;;8.40;;
577;SDS011;275;48.492;9.214;2023-04-06T13:02:19;9.10;;;7.37;;
577;SDS011;275;48.492;9.214;2023-04-06T13:04:46;10.53;;;7.70;;
577;SDS011;275;48.492;9.214;2023-04-06T13:07:14;9.13;;;8.10;;
577;SDS011;275;48.492;9.214;2023-04-06T13:09:42;8.37;;;7.23;;
577;SDS011;275;48.492;9.214;2023-04-06T13:12:10;8.10;;;7.00;;
577;SDS011;275;48.492;9.214;2023-04-06T13:14:36;8.73;;;7.20;;
577;SDS011;275;48.492;9.214;2023-04-06T13:17:04;8.40;;;7.60;;
577;SDS011;275;48.492;9.214;2023-04-06T13:19:31;7.40;;;6.53;;
577;SDS011;275;48.492;9.214;2023-04-06T13:21:58;9.07;;;6.93;;
577;SDS011;275;48.492;9.214;2023-04-06T13:24:25;7.90;;;7.07;;
577;SDS011;275;48.492;9.214;2023-04-06T13:26:53;7.80;;;6.90;;
577;SDS011;275;48.492;9.214;2023-04-06T13:29:20;8.33;;;7.43;;
577;SDS011;275;48.492;9.214;2023-04-06T13:31:47;7.60;;;6.90;;
577;SDS011;275;48.492;9.214;2023-04-06T13:34:14;7.30;;;6.37;;
577;SDS011;275;48.492;9.214;2023-04-06T13:36:41;7.90;;;5.70;;
577;SDS011;275;48.492;9.214;2023-04-06T13:39:08;6.07;;;5.33;;
577;SDS011;275;48.492;9.214;2023-04-06T13:41:35;6.90;;;6.20;;
577;SDS011;275;48.492;9.214;2023-04-06T13:44:04;6.53;;;5.93;;
577;SDS011;275;48.492;9.214;2023-04-06T13:46:31;6.57;;;5.87;;
577;SDS011;275;48.492;9.214;2023-04-06T13:48:58;7.47;;;5.90;;
577;SDS011;275;48.492;9.214;2023-04-06T13:51:25;6.27;;;5.67;;
577;SDS011;275;48.492;9.214;2023-04-06T13:53:52;6.47;;;5.87;;
577;SDS011;275;48.492;9.214;2023-04-06T13:56:20;5.47;;;4.97;;
577;SDS011;275;48.492;9.214;2023-04-06T13:58:46;6.40;;;5.60;;
577;SDS011;275;48.492;9.214;2023-04-06T14:01:15;6.07;;;5.43;;
577;SDS011;275;48.492;9.214;2023-04-06T14:03:41;6.03;;;5.43;;
577;SDS011;275;48.492;9.214;2023-04-06T14:06:11;5.73;;;5.07;;
577;SDS011;275;48.492;9.214;2023-04-06T14:08:39;6.83;;;5.30;;
577;SDS011;275;48.492;9.214;2023-04-06T14:11:10;5.87;;;4.60;;
577;SDS011;275;48.492;9.214;2023-04-06T14:13:38;6.20;;;5.00;;
577;SDS011;275;48.492;9.214;2023-04-06T14:16:05;5.33;;;4.83;;
577;SDS011;275;48.492;9.214;2023-04-06T14:18:34;5.00;;;4.50;;
577;SDS011;275;48.492;9.214;2023-04-06T14:21:02;6.03;;;5.20;;
577;SDS011;275;48.492;9.214;2023-04-06T14:23:29;6.53;;;5.33;;
577;SDS011;275;48.492;9.214;2023-04-06T14:26:03;6.30;;;5.37;;
577;SDS011;275;48.492;9.214;2023-04-06T14:28:31;6.23;;;5.27;;
577;SDS011;275;48.492;9.214;2023-04-06T14:30:58;5.60;;;5.00;;
577;SDS011;275;48.492;9.214;2023-04-06T14:33:26;5.90;;;4.67;;
577;SDS011;275;48.492;9.214;2023-04-06T14:35:54;6.33;;;5.50;;
577;SDS011;275;48.492;9.214;2023-04-06T14:38:21;6.77;;;6.07;;
577;SDS011;275;48.492;9.214;2023-04-06T14:40:48;6.87;;;5.97;;
577;SDS011;275;48.492;9.214;2023-04-06T14:43:15;5.83;;;5.23;;
577;SDS011;275;48.492;9.214;2023-04-06T14:45:42;7.00;;;6.00;;
577;SDS011;275;48.492;9.214;2023-04-06T14:48:08;6.53;;;5.20;;
577;SDS011;275;48.492;9.214;2023-04-06T14:50:37;9.23;;;6.20;;
577;SDS011;275;48.492;9.214;2023-04-06T14:53:05;6.87;;;5.90;;
577;SDS011;275;48.492;9.214;2023-04-06T14:55:32;6.63;;;5.93;;
577;SDS011;275;48.492;9.214;2023-04-06T14:58:05;6.20;;;5.57;;
577;SDS011;275;48.492;9.214;2023-04-06T15:00:32;6.47;;;5.87;;
577;SDS011;275;48.492;9.214;2023-04-06T15:02:59;6.00;;;5.40;;
577;SDS011;275;48.492;9.214;2023-04-06T15:05:25;6.73;;;6.07;;
577;SDS011;275;48.492;9.214;2023-04-06T15:07:52;6.50;;;5.70;;
577;SDS011;275;48.492;9.214;2023-04-06T15:10:20;6.23;;;5.63;;
577;SDS011;275;48.492;9.214;2023-04-06T15:12:47;5.13;;;4.50;;
577;SDS011;275;48.492;9.214;2023-04-06T15:15:14;6.87;;;5.87;;
577;SDS011;275;48.492;9.214;2023-04-06T15:17:41;6.00;;;5.27;;
577;SDS011;275;48.492;9.214;2023-04-06T15:20:08;7.93;;;5.70;;
577;SDS011;275;48.492;9.214;2023-04-06T15:22:36;6.53;;;5.70;;
577;SDS011;275;48.492;9.214;2023-04-06T15:25:03;6.03;;;5.43;;
577;SDS011;275;48.492;9.214;2023-04-06T15:27:32;6.47;;;5.87;;